sensor_id;sensor_type;location;lat;lon;timestamp;pressure;altitude;pressure_sealevel;temperature;humidity
43119;BME280;28729;49.838;8.650;2023-05-29T00:00:06;99915.00;;;15.31;66.78
43119;BME280;28729;49.838;8.650;2023-05-29T00:04:13;99905.31;;;15.23;68.23
43119;BME280;28729;49.838;8.650;2023-05-29T00:08:15;99907.53;;;15.16;69.81
43119;BME280;28729;49.838;8.650;2023-05-29T00:12:17;99903.63;;;15.07;70.46
43119;BME280;28729;49.838;8.650;2023-05-29T00:16:20;99905.00;;;14.99;70.44
43119;BME280;28729;49.838;8.650;2023-05-29T00:20:22;99910.31;;;14.90;71.85
43119;BME280;28729;49.838;8.650;2023-05-29T00:24:24;99904.75;;;14.85;72.26
43119;BME280;28729;49.838;8.650;2023-05-29T00:28:26;99913.63;;;14.82;73.37
43119;BME280;28729;49.838;8.650;2023-05-29T00:32:28;99906.94;;;14.78;74.32
43119;BME280;28729;49.838;8.650;2023-05-29T00:36:31;99905.56;;;14.70;75.13
43119;BME280;28729;49.838;8.650;2023-05-29T00:40:33;99898.59;;;14.63;76.05
43119;BME280;28729;49.838;8.650;2023-05-29T00:44:35;99904.66;;;14.54;75.64
43119;BME280;28729;49.838;8.650;2023-05-29T00:48:37;99894.66;;;14.48;75.34
43119;BME280;28729;49.838;8.650;2023-05-29T00:52:40;99903.50;;;14.45;77.48
43119;BME280;28729;49.838;8.650;2023-05-29T00:56:43;99902.41;;;14.41;77.87
43119;BME280;28729;49.838;8.650;2023-05-29T01:00:46;99898.78;;;14.35;77.38
43119;BME280;28729;49.838;8.650;2023-05-29T01:04:48;99888.53;;;14.31;77.16
43119;BME280;28729;49.838;8.650;2023-05-29T01:08:50;99890.69;;;14.24;78.32
43119;BME280;28729;49.838;8.650;2023-05-29T01:13:11;99897.91;;;14.20;79.54
43119;BME280;28729;49.838;8.650;2023-05-29T01:17:30;99893.16;;;14.15;79.41
43119;BME280;28729;49.838;8.650;2023-05-29T01:25:59;99882.88;;;14.05;79.64
43119;BME280;28729;49.838;8.650;2023-05-29T01:30:12;99882.59;;;14.02;80.51
43119;BME280;28729;49.838;8.650;2023-05-29T01:34:14;99878.69;;;13.98;79.84
43119;BME280;28729;49.838;8.650;2023-05-29T01:38:17;99887.31;;;14.01;78.44
43119;BME280;28729;49.838;8.650;2023-05-29T01:42:19;99885.91;;;14.04;77.65
43119;BME280;28729;49.838;8.650;2023-05-29T01:46:22;99895.09;;;14.04;77.85
43119;BME280;28729;49.838;8.650;2023-05-29T01:50:27;99890.09;;;14.01;77.16
43119;BME280;28729;49.838;8.650;2023-05-29T01:54:31;99888.97;;;14.02;76.66
43119;BME280;28729;49.838;8.650;2023-05-29T01:58:34;99886.19;;;14.02;77.01
43119;BME280;28729;49.838;8.650;2023-05-29T02:02:37;99886.19;;;14.02;75.77
43119;BME280;28729;49.838;8.650;2023-05-29T02:06:39;99882.88;;;14.05;75.97
43119;BME280;28729;49.838;8.650;2023-05-29T02:10:41;99883.44;;;14.02;75.94
43119;BME280;28729;49.838;8.650;2023-05-29T02:14:43;99882.31;;;14.03;74.85
43119;BME280;28729;49.838;8.650;2023-05-29T02:18:45;99882.88;;;14.05;75.68
43119;BME280;28729;49.838;8.650;2023-05-29T02:22:47;99884.53;;;14.06;74.98
43119;BME280;28729;49.838;8.650;2023-05-29T02:26:49;99877.88;;;14.02;74.97
43119;BME280;28729;49.838;8.650;2023-05-29T02:30:53;99877.59;;;13.99;75.83
43119;BME280;28729;49.838;8.650;2023-05-29T02:34:57;99876.75;;;13.93;75.56
43119;BME280;28729;49.838;8.650;2023-05-29T02:38:59;99877.31;;;13.95;74.96
43119;BME280;28729;49.838;8.650;2023-05-29T02:43:01;99881.72;;;13.91;75.38
43119;BME280;28729;49.838;8.650;2023-05-29T02:47:05;99886.13;;;13.87;75.71
43119;BME280;28729;49.838;8.650;2023-05-29T02:51:07;99884.44;;;13.81;76.30
43119;BME280;28729;49.838;8.650;2023-05-29T02:55:08;99882.47;;;13.76;77.01
43119;BME280;28729;49.838;8.650;2023-05-29T02:59:10;99890.25;;;13.74;76.89
43119;BME280;28729;49.838;8.650;2023-05-29T03:03:12;99888.25;;;13.70;77.20
43119;BME280;28729;49.838;8.650;2023-05-29T03:07:14;99886.03;;;13.66;77.55
43119;BME280;28729;49.838;8.650;2023-05-29T03:11:16;99893.50;;;13.66;78.35
43119;BME280;28729;49.838;8.650;2023-05-29T03:15:19;99893.75;;;13.64;78.72
43119;BME280;28729;49.838;8.650;2023-05-29T03:19:22;99899.28;;;13.59;79.35
43119;BME280;28729;49.838;8.650;2023-05-29T03:23:24;99890.38;;;13.52;79.52
43119;BME280;28729;49.838;8.650;2023-05-29T03:27:29;99889.50;;;13.47;80.75
43119;BME280;28729;49.838;8.650;2023-05-29T03:31:39;99886.44;;;13.43;81.28
43119;BME280;28729;49.838;8.650;2023-05-29T03:35:41;99886.69;;;13.36;82.78
43119;BME280;28729;49.838;8.650;2023-05-29T03:39:44;99895.50;;;13.33;81.77
43119;BME280;28729;49.838;8.650;2023-05-29T03:43:47;99902.13;;;13.32;82.31
43119;BME280;28729;49.838;8.650;2023-05-29T03:47:50;99912.91;;;13.29;82.62
43119;BME280;28729;49.838;8.650;2023-05-29T03:51:52;99915.59;;;13.23;84.94
43119;BME280;28729;49.838;8.650;2023-05-29T03:55:54;99916.13;;;13.20;85.01
43119;BME280;28729;49.838;8.650;2023-05-29T03:59:57;99915.81;;;13.17;87.82
43119;BME280;28729;49.838;8.650;2023-05-29T04:03:58;99921.06;;;13.13;86.61
43119;BME280;28729;49.838;8.650;2023-05-29T04:08:00;99927.13;;;13.10;86.67
43119;BME280;28729;49.838;8.650;2023-05-29T04:12:16;99936.19;;;13.06;87.97
43119;BME280;28729;49.838;8.650;2023-05-29T04:16:18;99946.13;;;13.02;88.26
43119;BME280;28729;49.838;8.650;2023-05-29T04:20:20;99950.25;;;12.99;89.26
43119;BME280;28729;49.838;8.650;2023-05-29T04:24:22;99949.69;;;12.97;89.65
43119;BME280;28729;49.838;8.650;2023-05-29T04:28:26;99954.34;;;12.91;91.76
43119;BME280;28729;49.838;8.650;2023-05-29T04:32:29;99966.19;;;12.87;92.66
43119;BME280;28729;49.838;8.650;2023-05-29T04:36:34;99966.44;;;12.85;93.03
43119;BME280;28729;49.838;8.650;2023-05-29T04:40:43;99970.03;;;12.86;94.31
43119;BME280;28729;49.838;8.650;2023-05-29T04:44:51;99973.06;;;12.84;93.89
43119;BME280;28729;49.838;8.650;2023-05-29T04:48:57;99977.25;;;12.87;93.42
43119;BME280;28729;49.838;8.650;2023-05-29T04:53:01;99976.72;;;12.90;93.71
43119;BME280;28729;49.838;8.650;2023-05-29T04:57:07;99986.19;;;12.94;94.06
43119;BME280;28729;49.838;8.650;2023-05-29T05:01:10;99989.81;;;12.99;93.87
43119;BME280;28729;49.838;8.650;2023-05-29T05:05:16;99994.56;;;13.04;93.59
43119;BME280;28729;49.838;8.650;2023-05-29T05:09:18;99996.88;;;13.12;93.50
43119;BME280;28729;49.838;8.650;2023-05-29T05:13:21;99995.50;;;13.15;94.37
43119;BME280;28729;49.838;8.650;2023-05-29T05:17:24;100000.00;;;13.21;93.24
43119;BME280;28729;49.838;8.650;2023-05-29T05:21:26;99997.03;;;13.28;92.86
43119;BME280;28729;49.838;8.650;2023-05-29T05:25:32;100005.94;;;13.35;93.54
43119;BME280;28729;49.838;8.650;2023-05-29T05:29:36;100002.69;;;13.43;93.67
43119;BME280;28729;49.838;8.650;2023-05-29T05:33:39;100010.25;;;13.53;92.23
43119;BME280;28729;49.838;8.650;2023-05-29T05:37:41;100008.41;;;13.63;91.53
43119;BME280;28729;49.838;8.650;2023-05-29T05:41:46;100028.13;;;13.72;91.53
43119;BME280;28729;49.838;8.650;2023-05-29T05:45:53;100030.09;;;13.77;93.12
43119;BME280;28729;49.838;8.650;2023-05-29T05:49:56;100021.03;;;13.86;92.16
43119;BME280;28729;49.838;8.650;2023-05-29T05:53:59;100029.69;;;13.95;91.40
43119;BME280;28729;49.838;8.650;2023-05-29T05:58:02;100028.63;;;14.06;92.11
43119;BME280;28729;49.838;8.650;2023-05-29T06:02:05;100030.94;;;14.20;90.59
43119;BME280;28729;49.838;8.650;2023-05-29T06:06:10;100029.34;;;14.34;90.25
43119;BME280;28729;49.838;8.650;2023-05-29T06:10:15;100036.91;;;14.49;89.82
43119;BME280;28729;49.838;8.650;2023-05-29T06:14:17;100037.81;;;14.59;89.53
43119;BME280;28729;49.838;8.650;2023-05-29T06:18:20;100040.38;;;14.76;88.59
43119;BME280;28729;49.838;8.650;2023-05-29T06:22:23;100040.13;;;14.88;88.40
43119;BME280;28729;49.838;8.650;2023-05-29T06:26:29;100057.09;;;15.07;86.36
43119;BME280;28729;49.838;8.650;2023-05-29T06:30:35;100059.09;;;15.27;85.08
43119;BME280;28729;49.838;8.650;2023-05-29T06:34:42;100054.69;;;15.41;84.43
43119;BME280;28729;49.838;8.650;2023-05-29T06:38:48;100048.59;;;15.60;83.58
43119;BME280;28729;49.838;8.650;2023-05-29T06:42:55;100048.34;;;15.77;81.84
43119;BME280;28729;49.838;8.650;2023-05-29T06:47:30;100053.59;;;16.04;80.36
43119;BME280;28729;49.838;8.650;2023-05-29T06:51:34;100051.31;;;16.31;79.83
43119;BME280;28729;49.838;8.650;2023-05-29T06:55:58;100042.03;;;16.56;78.19
43119;BME280;28729;49.838;8.650;2023-05-29T06:59:59;100038.38;;;16.81;77.35
43119;BME280;28729;49.838;8.650;2023-05-29T07:04:03;100042.69;;;17.08;74.22
43119;BME280;28729;49.838;8.650;2023-05-29T07:08:06;100050.94;;;17.23;72.91
43119;BME280;28729;49.838;8.650;2023-05-29T07:12:08;100055.78;;;17.47;72.80
43119;BME280;28729;49.838;8.650;2023-05-29T07:16:11;100051.09;;;17.76;71.42
43119;BME280;28729;49.838;8.650;2023-05-29T07:20:28;100055.53;;;18.12;69.14
43119;BME280;28729;49.838;8.650;2023-05-29T07:24:34;100062.22;;;18.40;67.16
43119;BME280;28729;49.838;8.650;2023-05-29T07:28:38;100077.06;;;18.59;65.39
43119;BME280;28729;49.838;8.650;2023-05-29T07:32:39;100062.53;;;18.86;65.00
43119;BME280;28729;49.838;8.650;2023-05-29T07:37:02;100065.13;;;19.21;63.99
43119;BME280;28729;49.838;8.650;2023-05-29T07:41:07;100063.00;;;19.50;60.82
43119;BME280;28729;49.838;8.650;2023-05-29T07:45:11;100067.84;;;19.64;58.52
43119;BME280;28729;49.838;8.650;2023-05-29T07:49:14;100063.63;;;19.85;56.47
43119;BME280;28729;49.838;8.650;2023-05-29T07:53:16;100061.59;;;20.04;56.58
43119;BME280;28729;49.838;8.650;2023-05-29T07:57:20;100066.19;;;20.28;56.28
43119;BME280;28729;49.838;8.650;2023-05-29T08:01:23;100070.00;;;20.65;55.79
43119;BME280;28729;49.838;8.650;2023-05-29T08:05:25;100066.03;;;20.93;54.53
43119;BME280;28729;49.838;8.650;2023-05-29T08:09:29;100068.50;;;21.09;53.08
43119;BME280;28729;49.838;8.650;2023-05-29T08:13:31;100070.81;;;21.07;50.74
43119;BME280;28729;49.838;8.650;2023-05-29T08:17:33;100074.19;;;21.17;51.12
43119;BME280;28729;49.838;8.650;2023-05-29T08:21:35;100082.91;;;21.30;49.42
43119;BME280;28729;49.838;8.650;2023-05-29T08:25:37;100086.75;;;21.48;49.01
43119;BME280;28729;49.838;8.650;2023-05-29T08:29:38;100085.41;;;21.68;48.60
43119;BME280;28729;49.838;8.650;2023-05-29T08:33:40;100072.88;;;21.88;47.89
43119;BME280;28729;49.838;8.650;2023-05-29T08:37:42;100080.88;;;22.03;47.22
43119;BME280;28729;49.838;8.650;2023-05-29T08:41:51;100076.81;;;22.32;48.52
43119;BME280;28729;49.838;8.650;2023-05-29T08:46:02;100073.00;;;22.67;47.12
43119;BME280;28729;49.838;8.650;2023-05-29T08:50:05;100075.19;;;22.79;47.00
43119;BME280;28729;49.838;8.650;2023-05-29T08:54:07;100084.38;;;23.02;46.46
43119;BME280;28729;49.838;8.650;2023-05-29T08:58:09;100080.09;;;23.13;46.44
43119;BME280;28729;49.838;8.650;2023-05-29T09:02:13;100076.16;;;23.14;45.53
43119;BME280;28729;49.838;8.650;2023-05-29T09:06:16;100071.22;;;23.37;45.56
43119;BME280;28729;49.838;8.650;2023-05-29T09:10:20;100076.84;;;23.46;45.39
43119;BME280;28729;49.838;8.650;2023-05-29T09:14:37;100083.81;;;23.57;43.87
43119;BME280;28729;49.838;8.650;2023-05-29T09:18:40;100078.06;;;23.71;42.36
43119;BME280;28729;49.838;8.650;2023-05-29T09:26:55;100081.50;;;23.94;40.87
43119;BME280;28729;49.838;8.650;2023-05-29T09:30:58;100072.56;;;24.09;40.82
43119;BME280;28729;49.838;8.650;2023-05-29T09:35:00;100074.16;;;24.45;40.44
43119;BME280;28729;49.838;8.650;2023-05-29T09:39:02;100068.41;;;24.63;38.28
43119;BME280;28729;49.838;8.650;2023-05-29T09:43:18;100073.75;;;24.55;37.64
43119;BME280;28729;49.838;8.650;2023-05-29T09:47:21;100071.56;;;24.70;38.50
43119;BME280;28729;49.838;8.650;2023-05-29T09:51:23;100073.06;;;24.97;37.71
43119;BME280;28729;49.838;8.650;2023-05-29T09:55:27;100078.16;;;25.04;37.63
43119;BME280;28729;49.838;8.650;2023-05-29T09:59:31;100077.97;;;25.09;37.58
43119;BME280;28729;49.838;8.650;2023-05-29T10:03:32;100069.50;;;25.17;37.29
43119;BME280;28729;49.838;8.650;2023-05-29T10:07:37;100061.81;;;25.27;37.54
43119;BME280;28729;49.838;8.650;2023-05-29T10:11:47;100059.06;;;25.60;36.96
43119;BME280;28729;49.838;8.650;2023-05-29T10:15:51;100052.66;;;25.92;35.88
43119;BME280;28729;49.838;8.650;2023-05-29T10:19:57;100046.44;;;25.78;35.47
43119;BME280;28729;49.838;8.650;2023-05-29T10:24:04;100054.03;;;25.86;35.14
43119;BME280;28729;49.838;8.650;2023-05-29T10:28:08;100043.16;;;25.97;34.76
43119;BME280;28729;49.838;8.650;2023-05-29T10:32:23;100043.91;;;26.19;34.92
43119;BME280;28729;49.838;8.650;2023-05-29T10:36:35;100045.44;;;26.28;34.94
43119;BME280;28729;49.838;8.650;2023-05-29T10:40:37;100043.53;;;26.20;35.36
43119;BME280;28729;49.838;8.650;2023-05-29T10:44:39;100045.22;;;26.33;35.96
43119;BME280;28729;49.838;8.650;2023-05-29T10:48:42;100042.63;;;26.41;35.13
43119;BME280;28729;49.838;8.650;2023-05-29T10:52:47;100039.75;;;26.49;36.19
43119;BME280;28729;49.838;8.650;2023-05-29T10:56:56;100042.13;;;26.59;33.83
43119;BME280;28729;49.838;8.650;2023-05-29T11:00:58;100040.09;;;26.48;34.51
43119;BME280;28729;49.838;8.650;2023-05-29T11:05:04;100036.09;;;26.73;34.26
43119;BME280;28729;49.838;8.650;2023-05-29T11:09:38;100035.97;;;27.07;33.24
43119;BME280;28729;49.838;8.650;2023-05-29T11:13:51;100049.88;;;27.24;33.16
43119;BME280;28729;49.838;8.650;2023-05-29T11:17:53;100027.25;;;27.24;31.79
43119;BME280;28729;49.838;8.650;2023-05-29T11:22:09;100023.75;;;27.55;32.10
43119;BME280;28729;49.838;8.650;2023-05-29T11:26:17;100020.69;;;27.48;31.42
43119;BME280;28729;49.838;8.650;2023-05-29T11:30:21;100026.25;;;27.44;32.50
43119;BME280;28729;49.838;8.650;2023-05-29T11:34:24;100018.72;;;27.36;32.85
43119;BME280;28729;49.838;8.650;2023-05-29T11:38:29;100024.97;;;27.42;33.34
43119;BME280;28729;49.838;8.650;2023-05-29T11:42:31;100019.72;;;28.12;32.87
43119;BME280;28729;49.838;8.650;2023-05-29T11:46:33;100013.53;;;28.70;31.44
43119;BME280;28729;49.838;8.650;2023-05-29T11:50:37;100013.81;;;28.81;29.74
43119;BME280;28729;49.838;8.650;2023-05-29T11:54:39;100018.94;;;28.75;29.73
43119;BME280;28729;49.838;8.650;2023-05-29T11:58:41;100018.00;;;29.03;28.05
43119;BME280;28729;49.838;8.650;2023-05-29T12:02:43;100014.53;;;29.10;27.91
43119;BME280;28729;49.838;8.650;2023-05-29T12:06:45;100011.16;;;29.04;28.22
43119;BME280;28729;49.838;8.650;2023-05-29T12:10:48;100005.75;;;29.34;28.23
43119;BME280;28729;49.838;8.650;2023-05-29T12:14:52;100009.78;;;30.11;26.96
43119;BME280;28729;49.838;8.650;2023-05-29T12:18:54;100003.63;;;30.78;25.88
43119;BME280;28729;49.838;8.650;2023-05-29T12:23:01;100005.22;;;31.55;26.21
43119;BME280;28729;49.838;8.650;2023-05-29T12:27:04;100001.44;;;32.15;25.46
43119;BME280;28729;49.838;8.650;2023-05-29T12:31:06;99999.19;;;32.35;24.79
43119;BME280;28729;49.838;8.650;2023-05-29T12:39:14;99994.00;;;32.96;22.61
43119;BME280;28729;49.838;8.650;2023-05-29T12:43:16;99991.97;;;33.58;21.66
43119;BME280;28729;49.838;8.650;2023-05-29T12:47:23;99986.66;;;33.61;21.53
43119;BME280;28729;49.838;8.650;2023-05-29T12:51:26;99990.91;;;34.10;22.04
43119;BME280;28729;49.838;8.650;2023-05-29T12:55:30;99986.47;;;34.48;20.41
43119;BME280;28729;49.838;8.650;2023-05-29T12:59:34;99983.59;;;34.87;21.24
43119;BME280;28729;49.838;8.650;2023-05-29T13:03:36;99986.63;;;35.75;20.82
43119;BME280;28729;49.838;8.650;2023-05-29T13:07:38;99978.81;;;36.53;19.85
43119;BME280;28729;49.838;8.650;2023-05-29T13:11:40;99964.75;;;37.41;18.93
43119;BME280;28729;49.838;8.650;2023-05-29T13:15:41;99966.47;;;37.35;18.95
43119;BME280;28729;49.838;8.650;2023-05-29T13:19:43;99970.66;;;37.92;18.37
43119;BME280;28729;49.838;8.650;2023-05-29T13:23:45;99971.34;;;38.03;18.47
43119;BME280;28729;49.838;8.650;2023-05-29T13:27:48;99958.44;;;38.15;18.27
43119;BME280;28729;49.838;8.650;2023-05-29T13:31:49;99966.75;;;37.79;17.59
43119;BME280;28729;49.838;8.650;2023-05-29T13:35:51;99956.50;;;38.08;18.85
43119;BME280;28729;49.838;8.650;2023-05-29T13:39:56;99957.56;;;38.69;17.80
43119;BME280;28729;49.838;8.650;2023-05-29T13:43:57;99951.81;;;38.92;17.63
43119;BME280;28729;49.838;8.650;2023-05-29T13:47:59;99964.13;;;39.36;18.04
43119;BME280;28729;49.838;8.650;2023-05-29T13:52:04;99953.44;;;39.93;17.16
43119;BME280;28729;49.838;8.650;2023-05-29T13:56:06;99959.63;;;39.92;16.88
43119;BME280;28729;49.838;8.650;2023-05-29T14:00:11;99951.84;;;40.08;16.94
43119;BME280;28729;49.838;8.650;2023-05-29T14:04:14;99943.28;;;39.49;16.65
43119;BME280;28729;49.838;8.650;2023-05-29T14:08:15;99944.00;;;39.13;17.44
43119;BME280;28729;49.838;8.650;2023-05-29T14:12:17;99940.84;;;38.60;17.81
43119;BME280;28729;49.838;8.650;2023-05-29T14:16:19;99937.91;;;38.40;17.76
43119;BME280;28729;49.838;8.650;2023-05-29T14:20:21;99931.78;;;38.62;17.50
43119;BME280;28729;49.838;8.650;2023-05-29T14:24:23;99939.97;;;39.30;17.45
43119;BME280;28729;49.838;8.650;2023-05-29T14:28:26;99941.28;;;38.82;17.49
43119;BME280;28729;49.838;8.650;2023-05-29T14:32:28;99937.91;;;38.40;17.46
43119;BME280;28729;49.838;8.650;2023-05-29T14:36:30;99938.84;;;38.06;18.13
43119;BME280;28729;49.838;8.650;2023-05-29T14:40:31;99938.53;;;38.51;17.35
43119;BME280;28729;49.838;8.650;2023-05-29T14:44:35;99938.03;;;37.10;18.52
43119;BME280;28729;49.838;8.650;2023-05-29T14:48:37;99937.69;;;36.15;19.35
43119;BME280;28729;49.838;8.650;2023-05-29T14:52:39;99940.19;;;36.02;19.21
43119;BME280;28729;49.838;8.650;2023-05-29T14:56:41;99929.56;;;35.04;20.32
43119;BME280;28729;49.838;8.650;2023-05-29T15:00:42;99937.38;;;34.92;20.13
43119;BME280;28729;49.838;8.650;2023-05-29T15:04:44;99941.09;;;34.72;20.99
43119;BME280;28729;49.838;8.650;2023-05-29T15:08:48;99933.03;;;35.65;19.91
43119;BME280;28729;49.838;8.650;2023-05-29T15:12:51;99930.09;;;36.39;19.42
43119;BME280;28729;49.838;8.650;2023-05-29T15:16:58;99930.16;;;36.32;19.33
43119;BME280;28729;49.838;8.650;2023-05-29T15:21:01;99924.34;;;34.31;21.05
43119;BME280;28729;49.838;8.650;2023-05-29T15:25:03;99928.22;;;32.71;21.90
43119;BME280;28729;49.838;8.650;2023-05-29T15:29:05;99931.09;;;31.48;22.59
43119;BME280;28729;49.838;8.650;2023-05-29T15:33:07;99922.84;;;30.29;24.11
43119;BME280;28729;49.838;8.650;2023-05-29T15:37:11;99927.16;;;29.77;24.93
43119;BME280;28729;49.838;8.650;2023-05-29T15:41:13;99922.81;;;29.44;25.65
43119;BME280;28729;49.838;8.650;2023-05-29T15:45:15;99928.00;;;28.84;26.21
43119;BME280;28729;49.838;8.650;2023-05-29T15:49:17;99927.16;;;28.48;26.60
43119;BME280;28729;49.838;8.650;2023-05-29T15:53:19;99931.19;;;28.15;27.20
43119;BME280;28729;49.838;8.650;2023-05-29T15:57:21;99932.56;;;27.78;27.27
43119;BME280;28729;49.838;8.650;2023-05-29T16:01:23;99913.72;;;27.54;27.80
43119;BME280;28729;49.838;8.650;2023-05-29T16:05:25;99935.41;;;27.34;28.13
43119;BME280;28729;49.838;8.650;2023-05-29T16:09:27;99925.06;;;27.13;28.81
43119;BME280;28729;49.838;8.650;2023-05-29T16:13:28;99922.16;;;26.97;28.67
43119;BME280;28729;49.838;8.650;2023-05-29T16:17:34;99925.53;;;26.75;28.81
43119;BME280;28729;49.838;8.650;2023-05-29T16:21:36;99938.00;;;26.62;29.51
43119;BME280;28729;49.838;8.650;2023-05-29T16:25:37;99934.94;;;26.42;29.96
43119;BME280;28729;49.838;8.650;2023-05-29T16:29:39;99934.81;;;26.26;30.53
43119;BME280;28729;49.838;8.650;2023-05-29T16:33:41;99936.69;;;26.22;30.98
43119;BME280;28729;49.838;8.650;2023-05-29T16:37:43;99937.50;;;26.23;30.39
43119;BME280;28729;49.838;8.650;2023-05-29T16:41:45;99936.47;;;26.15;32.36
43119;BME280;28729;49.838;8.650;2023-05-29T16:45:47;99934.78;;;26.14;32.94
43119;BME280;28729;49.838;8.650;2023-05-29T16:49:49;99937.03;;;26.08;34.45
43119;BME280;28729;49.838;8.650;2023-05-29T16:53:52;99941.81;;;25.83;35.49
43119;BME280;28729;49.838;8.650;2023-05-29T16:57:53;99934.22;;;25.75;35.63
43119;BME280;28729;49.838;8.650;2023-05-29T17:01:55;99938.63;;;25.52;36.77
43119;BME280;28729;49.838;8.650;2023-05-29T17:05:57;99923.03;;;25.33;36.93
43119;BME280;28729;49.838;8.650;2023-05-29T17:09:59;99943.22;;;25.23;37.62
43119;BME280;28729;49.838;8.650;2023-05-29T17:14:01;99936.97;;;25.17;38.26
43119;BME280;28729;49.838;8.650;2023-05-29T17:18:03;99938.31;;;24.90;39.00
43119;BME280;28729;49.838;8.650;2023-05-29T17:22:05;99939.63;;;24.72;39.42
43119;BME280;28729;49.838;8.650;2023-05-29T17:26:08;99940.41;;;24.51;41.65
43119;BME280;28729;49.838;8.650;2023-05-29T17:30:10;99961.94;;;24.47;40.26
43119;BME280;28729;49.838;8.650;2023-05-29T17:34:12;99953.72;;;24.42;40.57
43119;BME280;28729;49.838;8.650;2023-05-29T17:38:14;99959.34;;;24.33;40.99
43119;BME280;28729;49.838;8.650;2023-05-29T17:42:16;99961.22;;;24.21;41.33
43119;BME280;28729;49.838;8.650;2023-05-29T17:46:17;99969.91;;;23.98;42.72
43119;BME280;28729;49.838;8.650;2023-05-29T17:50:20;99963.81;;;23.87;42.99
43119;BME280;28729;49.838;8.650;2023-05-29T17:54:23;99974.25;;;23.87;43.13
43119;BME280;28729;49.838;8.650;2023-05-29T17:58:25;99975.25;;;23.82;42.95
43119;BME280;28729;49.838;8.650;2023-05-29T18:02:27;99982.53;;;23.66;44.31
43119;BME280;28729;49.838;8.650;2023-05-29T18:06:29;99984.38;;;23.62;44.16
43119;BME280;28729;49.838;8.650;2023-05-29T18:10:35;99982.72;;;23.35;45.53
43119;BME280;28729;49.838;8.650;2023-05-29T18:14:37;99982.91;;;23.12;46.13
43119;BME280;28729;49.838;8.650;2023-05-29T18:18:39;99988.00;;;23.02;46.07
43119;BME280;28729;49.838;8.650;2023-05-29T18:22:41;99991.00;;;22.96;45.92
43119;BME280;28729;49.838;8.650;2023-05-29T18:26:42;99984.31;;;22.84;47.16
43119;BME280;28729;49.838;8.650;2023-05-29T18:30:46;99991.03;;;22.65;47.44
43119;BME280;28729;49.838;8.650;2023-05-29T18:34:48;99990.84;;;22.53;48.18
43119;BME280;28729;49.838;8.650;2023-05-29T18:38:50;99992.63;;;22.40;48.96
43119;BME280;28729;49.838;8.650;2023-05-29T18:42:56;100002.53;;;22.15;50.37
43119;BME280;28729;49.838;8.650;2023-05-29T18:46:58;99996.06;;;22.06;50.04
43119;BME280;28729;49.838;8.650;2023-05-29T18:51:00;99997.59;;;21.81;50.96
43119;BME280;28729;49.838;8.650;2023-05-29T18:55:03;100001.44;;;21.63;51.66
43119;BME280;28729;49.838;8.650;2023-05-29T18:59:07;100014.97;;;21.47;52.10
43119;BME280;28729;49.838;8.650;2023-05-29T19:03:09;100019.28;;;21.30;52.92
43119;BME280;28729;49.838;8.650;2023-05-29T19:07:12;100013.31;;;21.09;54.13
43119;BME280;28729;49.838;8.650;2023-05-29T19:11:13;100023.09;;;20.98;54.39
43119;BME280;28729;49.838;8.650;2023-05-29T19:15:17;100026.63;;;20.76;55.98
43119;BME280;28729;49.838;8.650;2023-05-29T19:19:19;100031.19;;;20.58;55.77
43119;BME280;28729;49.838;8.650;2023-05-29T19:23:21;100034.69;;;20.36;56.57
43119;BME280;28729;49.838;8.650;2023-05-29T19:27:23;100045.38;;;20.20;57.42
43119;BME280;28729;49.838;8.650;2023-05-29T19:31:26;100045.66;;;20.05;58.10
43119;BME280;28729;49.838;8.650;2023-05-29T19:35:28;100052.25;;;19.95;58.83
43119;BME280;28729;49.838;8.650;2023-05-29T19:39:30;100058.63;;;19.82;59.12
43119;BME280;28729;49.838;8.650;2023-05-29T19:43:32;100071.13;;;19.71;59.65
43119;BME280;28729;49.838;8.650;2023-05-29T19:47:34;100076.91;;;19.55;61.61
43119;BME280;28729;49.838;8.650;2023-05-29T19:51:36;100077.31;;;19.49;61.02
43119;BME280;28729;49.838;8.650;2023-05-29T19:55:38;100095.03;;;19.39;61.21
43119;BME280;28729;49.838;8.650;2023-05-29T19:59:40;100097.16;;;19.28;62.79
43119;BME280;28729;49.838;8.650;2023-05-29T20:03:44;100098.16;;;19.19;61.91
43119;BME280;28729;49.838;8.650;2023-05-29T20:07:46;100099.03;;;19.14;61.90
43119;BME280;28729;49.838;8.650;2023-05-29T20:11:47;100111.19;;;19.04;61.66
43119;BME280;28729;49.838;8.650;2023-05-29T20:15:49;100107.13;;;18.92;63.37
43119;BME280;28729;49.838;8.650;2023-05-29T20:19:51;100112.56;;;18.83;62.30
43119;BME280;28729;49.838;8.650;2023-05-29T20:23:55;100119.34;;;18.72;62.87
43119;BME280;28729;49.838;8.650;2023-05-29T20:27:57;100118.03;;;18.64;62.89
43119;BME280;28729;49.838;8.650;2023-05-29T20:31:59;100119.81;;;18.55;63.00
43119;BME280;28729;49.838;8.650;2023-05-29T20:36:01;100114.34;;;18.44;64.07
43119;BME280;28729;49.838;8.650;2023-05-29T20:40:03;100123.91;;;18.38;63.44
43119;BME280;28729;49.838;8.650;2023-05-29T20:44:05;100129.81;;;18.32;64.20
43119;BME280;28729;49.838;8.650;2023-05-29T20:48:08;100122.38;;;18.22;65.05
43119;BME280;28729;49.838;8.650;2023-05-29T20:52:09;100121.91;;;18.15;64.84
43119;BME280;28729;49.838;8.650;2023-05-29T20:56:12;100133.34;;;18.08;65.86
43119;BME280;28729;49.838;8.650;2023-05-29T21:00:14;100132.88;;;18.01;65.59
43119;BME280;28729;49.838;8.650;2023-05-29T21:04:16;100139.63;;;17.95;65.36
43119;BME280;28729;49.838;8.650;2023-05-29T21:08:19;100134.13;;;17.85;66.65
43119;BME280;28729;49.838;8.650;2023-05-29T21:12:22;100139.19;;;17.77;66.80
43119;BME280;28729;49.838;8.650;2023-05-29T21:16:24;100132.25;;;17.70;66.94
43119;BME280;28729;49.838;8.650;2023-05-29T21:20:26;100137.56;;;17.66;65.98
43119;BME280;28729;49.838;8.650;2023-05-29T21:24:28;100135.69;;;17.57;67.08
43119;BME280;28729;49.838;8.650;2023-05-29T21:28:29;100142.69;;;17.49;67.50
43119;BME280;28729;49.838;8.650;2023-05-29T21:32:31;100132.16;;;17.41;67.67